Time;durP1;ratioP1;P1;durP2;ratioP2;P2;SDS_P1;SDS_P2;PMS_P1;PMS_P2;Temp;Humidity;BMP_temperature;BMP_pressure;BME280_temperature;BME280_humidity;BME280_pressure;Samples;Min_cycle;Max_cycle;Signal;HPM_P1;HPM_P2
2022/01/14 00:01:09;;;;;;;23.67;13.63;;;;;;;3.93;83.55;101903.73;1631487;88;21070;-72
2022/01/14 00:03:36;;;;;;;22.50;13.63;;;;;;;3.92;83.44;101899.84;1631676;88;21556;-72
2022/01/14 00:06:03;;;;;;;21.80;12.63;;;;;;;3.90;83.39;101900.23;1631518;88;21545;-72
2022/01/14 00:08:30;;;;;;;25.03;13.27;;;;;;;3.89;83.38;101900.66;1631723;88;21188;-72
2022/01/14 00:10:58;;;;;;;24.03;12.87;;;;;;;3.87;83.34;101907.97;1631475;88;21043;-72
2022/01/14 00:13:51;;;;;;;22.27;12.57;;;;;;;3.86;83.38;101910.12;1631644;88;21051;-71
2022/01/14 00:16:09;;;;;;;24.07;13.13;;;;;;;3.84;83.38;101917.87;1633059;86;21079;-72
2022/01/14 00:18:36;;;;;;;22.37;12.40;;;;;;;3.84;83.40;101921.77;1631762;88;21047;-72
2022/01/14 00:21:03;;;;;;;22.07;13.40;;;;;;;3.82;83.39;101900.11;1631608;88;21834;-73
2022/01/14 00:23:35;;;;;;;21.83;13.33;;;;;;;3.79;83.43;101917.79;1631755;88;21024;-72
2022/01/14 00:31:46;;;;;;;18.90;11.47;;;;;;;3.72;83.28;101904.30;1631564;88;21048;-73
2022/01/14 00:34:14;;;;;;;20.90;11.80;;;;;;;3.71;83.27;101909.45;1631874;88;21203;-73
2022/01/14 00:36:41;;;;;;;20.77;12.37;;;;;;;3.68;83.23;101924.97;1631341;88;21047;-75
2022/01/14 00:39:12;;;;;;;20.97;12.60;;;;;;;3.66;83.28;101904.61;1631728;88;21141;-76
2022/01/14 00:41:41;;;;;;;20.40;12.27;;;;;;;3.67;83.29;101901.19;1631451;88;21032;-74
2022/01/14 00:44:15;;;;;;;20.73;12.90;;;;;;;3.66;83.27;101909.41;1631588;88;21043;-73
2022/01/14 00:46:46;;;;;;;23.90;13.90;;;;;;;3.64;83.29;101907.63;1631469;88;21970;-74
2022/01/14 00:49:15;;;;;;;23.10;13.37;;;;;;;3.60;83.31;101909.28;1631594;88;20967;-73
2022/01/14 00:51:43;;;;;;;22.30;12.93;;;;;;;3.61;83.29;101925.30;1631406;88;21482;-76
2022/01/14 00:54:12;;;;;;;20.70;12.70;;;;;;;3.61;83.21;101908.88;1631771;88;21066;-73
2022/01/14 00:59:15;;;;;;;22.77;12.77;;;;;;;3.60;83.24;101892.43;1631547;88;21284;-74
2022/01/14 01:01:49;;;;;;;23.87;12.30;;;;;;;3.62;83.23;101893.77;1631531;88;21020;-73
2022/01/14 01:04:30;;;;;;;19.90;11.70;;;;;;;3.60;83.22;101895.45;1631429;88;21516;-74
2022/01/14 01:06:57;;;;;;;25.93;13.47;;;;;;;3.61;83.26;101903.27;1631511;86;21024;-73
2022/01/14 01:09:25;;;;;;;24.83;14.63;;;;;;;3.61;83.23;101905.86;1631490;88;21067;-73
2022/01/14 01:12:13;;;;;;;27.33;14.50;;;;;;;3.59;83.28;101910.14;1631522;88;21120;-77
2022/01/14 01:14:42;;;;;;;24.07;14.60;;;;;;;3.57;83.32;101911.43;1632125;86;21122;-73
2022/01/14 01:17:08;;;;;;;25.23;13.43;;;;;;;3.56;83.32;101908.80;1631396;88;21051;-73
2022/01/14 01:19:35;;;;;;;20.83;12.70;;;;;;;3.55;83.27;101905.34;1631473;88;21532;-74
2022/01/14 01:22:04;;;;;;;21.83;12.97;;;;;;;3.56;83.27;101915.28;1631616;88;21146;-73
2022/01/14 01:24:33;;;;;;;26.10;14.23;;;;;;;3.55;83.31;101896.27;1632387;86;21157;-73
2022/01/14 01:27:06;;;;;;;24.37;13.23;;;;;;;3.55;83.32;101883.73;1631391;88;21024;-73
2022/01/14 01:29:47;;;;;;;23.87;13.80;;;;;;;3.56;83.35;101888.06;1631509;88;21068;-73
2022/01/14 01:32:01;;;;;;;24.40;13.87;;;;;;;3.55;83.39;101892.38;1633942;86;21047;-75
2022/01/14 01:34:27;;;;;;;25.13;13.23;;;;;;;3.56;83.46;101886.77;1631858;88;21256;-73
2022/01/14 01:36:58;;;;;;;24.40;13.83;;;;;;;3.57;83.44;101893.68;1631420;88;21155;-73
2022/01/14 01:39:29;;;;;;;28.85;14.23;;;;;;;3.56;83.46;101895.84;1631849;88;21031;-73
2022/01/14 01:42:00;;;;;;;24.80;13.30;;;;;;;3.57;83.46;101896.27;1630769;88;21040;-73
2022/01/14 01:44:28;;;;;;;26.80;14.13;;;;;;;3.56;83.52;101894.11;1631608;88;21067;-73
2022/01/14 01:46:57;;;;;;;24.10;12.83;;;;;;;3.57;83.51;101900.16;1631425;88;21063;-73
2022/01/14 01:49:29;;;;;;;22.97;13.07;;;;;;;3.56;83.58;101895.84;1631676;88;21191;-74
2022/01/14 01:51:57;;;;;;;24.37;13.50;;;;;;;3.56;83.59;101901.89;1631549;88;21525;-76
2022/01/14 01:54:25;;;;;;;24.20;13.23;;;;;;;3.56;83.63;101890.22;1631610;88;21088;-73
2022/01/14 01:56:53;;;;;;;25.97;13.87;;;;;;;3.56;83.65;101886.33;1631434;88;21099;-73
2022/01/14 01:59:23;;;;;;;28.77;14.43;;;;;;;3.56;83.70;101891.95;1631523;88;21028;-73
2022/01/14 02:01:53;;;;;;;29.47;15.17;;;;;;;3.57;83.77;101889.80;1631724;88;21134;-73
2022/01/14 02:04:20;;;;;;;25.10;13.17;;;;;;;3.57;83.81;101893.68;1631570;88;21055;-73
2022/01/14 02:06:48;;;;;;;25.30;13.23;;;;;;;3.58;83.90;101896.74;1631437;88;21068;-73
2022/01/14 02:09:15;;;;;;;23.37;12.97;;;;;;;3.57;83.89;101884.20;1631627;88;21544;-73
2022/01/14 02:11:42;;;;;;;29.20;14.63;;;;;;;3.57;83.94;101880.72;1631448;88;21024;-73
2022/01/14 02:14:27;;;;;;;23.47;13.47;;;;;;;3.57;84.00;101882.02;1631630;88;21119;-73
2022/01/14 02:19:28;;;;;;;25.00;13.17;;;;;;;3.59;84.12;101875.14;1631739;88;20559;-74
2022/01/14 02:22:13;;;;;;;22.10;13.10;;;;;;;3.58;84.20;101873.41;1631836;86;21091;-73
2022/01/14 02:27:12;;;;;;;27.87;14.30;;;;;;;3.60;84.32;101864.34;1586928;89;22185;-74
2022/01/14 02:29:39;;;;;;;25.37;13.73;;;;;;;3.60;84.39;101869.09;1613697;87;21762;-73
2022/01/14 02:32:09;;;;;;;26.30;14.77;;;;;;;3.61;84.35;101854.44;1613560;88;21085;-73
2022/01/14 02:34:39;;;;;;;23.23;13.53;;;;;;;3.62;84.40;101856.16;1613907;87;21002;-76
2022/01/14 02:37:07;;;;;;;26.60;14.45;;;;;;;3.61;84.43;101844.93;1608771;89;21055;-73
2022/01/14 02:39:34;;;;;;;23.03;13.37;;;;;;;3.63;84.47;101845.83;1631630;88;21110;-73
2022/01/14 02:42:01;;;;;;;25.07;13.17;;;;;;;3.65;84.54;101849.73;1631459;88;21047;-73
2022/01/14 02:44:30;;;;;;;24.07;13.77;;;;;;;3.65;84.51;101849.30;1631655;88;21031;-76
2022/01/14 02:47:04;;;;;;;23.33;13.23;;;;;;;3.65;84.53;101844.11;1631545;88;21509;-73
2022/01/14 02:49:31;;;;;;;24.05;13.22;;;;;;;3.68;84.59;101845.88;1632519;86;22201;-73
2022/01/14 02:52:01;;;;;;;23.65;12.78;;;;;;;3.67;84.54;101835.07;1631571;88;21907;-74
2022/01/14 02:54:32;;;;;;;;;;;;;;;3.68;84.58;101832.48;1634211;88;21032;-73
2022/01/14 02:57:00;;;;;;;25.40;13.87;;;;;;;3.68;84.54;101828.59;1631194;88;20404;-73
2022/01/14 02:59:30;;;;;;;25.05;13.58;;;;;;;3.67;84.62;101834.64;1631802;88;21476;-73
2022/01/14 03:02:01;;;;;;;26.15;15.18;;;;;;;3.67;84.62;101826.86;1631823;88;21024;-73
2022/01/14 03:04:28;;;;;;;;;;;;;;;3.68;84.65;101827.73;1633910;88;21143;-73
2022/01/14 03:06:55;;;;;;;24.77;13.93;;;;;;;3.67;84.68;101846.73;1631605;88;20187;-73
2022/01/14 03:09:22;;;;;;;22.80;13.80;;;;;;;3.66;84.69;101819.94;1631398;88;21031;-73
2022/01/14 03:11:53;;;;;;;24.80;14.43;;;;;;;3.66;84.70;101812.16;1631409;88;21019;-77
2022/01/14 03:14:25;;;;;;;24.50;14.03;;;;;;;3.66;84.65;101812.56;1631431;88;21384;-73
2022/01/14 03:16:51;;;;;;;27.43;15.07;;;;;;;3.67;84.70;101823.41;1630774;88;21881;-73
2022/01/14 03:19:22;;;;;;;27.57;14.70;;;;;;;3.66;84.67;101810.87;1631363;88;21019;-76
2022/01/14 03:21:50;;;;;;;27.07;14.57;;;;;;;3.65;84.64;101815.59;1631640;88;21047;-73
2022/01/14 03:25:36;;;;;;;27.93;15.67;;;;;;;3.64;84.63;101817.75;1631496;88;21090;-73
2022/01/14 03:26:52;;;;;;;27.23;15.37;;;;;;;3.63;84.59;101805.64;1634693;86;21055;-73
2022/01/14 03:29:19;;;;;;;28.33;15.40;;;;;;;3.62;84.60;101803.02;1631478;88;21150;-73
2022/01/14 03:31:47;;;;;;;28.70;16.00;;;;;;;3.61;84.58;101796.96;1631340;88;21032;-73
2022/01/14 03:34:15;;;;;;;27.47;16.00;;;;;;;3.60;84.59;101799.09;1631481;88;21043;-73
2022/01/14 03:36:42;;;;;;;30.63;15.33;;;;;;;3.57;84.56;101790.88;1631326;88;21055;-73
2022/01/14 03:39:09;;;;;;;30.97;16.17;;;;;;;3.58;84.62;101786.55;1631535;88;21540;-74
2022/01/14 03:41:36;;;;;;;29.33;15.00;;;;;;;3.60;84.69;101778.78;1631716;88;21494;-73
2022/01/14 03:44:04;;;;;;;31.00;16.27;;;;;;;3.60;84.71;101790.45;1631442;88;21529;-73
2022/01/14 03:46:31;;;;;;;28.00;15.60;;;;;;;3.62;84.70;101777.95;1631633;88;21047;-73
2022/01/14 03:48:58;;;;;;;29.80;16.37;;;;;;;3.63;84.70;101774.53;1631343;88;21060;-73
2022/01/14 03:51:27;;;;;;;29.33;15.40;;;;;;;3.64;84.67;101767.62;1631729;88;21560;-73
2022/01/14 03:53:55;;;;;;;30.37;15.53;;;;;;;3.65;84.68;101765.45;1631438;88;21157;-73
2022/01/14 03:56:23;;;;;;;28.67;15.33;;;;;;;3.67;84.67;101776.73;1631553;88;21055;-73
2022/01/14 03:58:50;;;;;;;27.53;17.00;;;;;;;3.67;84.66;101768.52;1631507;88;21053;-73
2022/01/14 04:01:19;;;;;;;31.23;16.87;;;;;;;3.66;84.67;101759.02;1631491;88;21064;-74
2022/01/14 04:03:49;;;;;;;32.57;17.57;;;;;;;3.65;84.65;101766.33;1631627;88;21043;-74
2022/01/14 04:06:17;;;;;;;27.33;15.87;;;;;;;3.62;84.66;101761.09;1631710;88;21176;-74
2022/01/14 04:08:44;;;;;;;30.10;15.50;;;;;;;3.61;84.58;101737.77;1631525;88;21517;-76
2022/01/14 04:11:12;;;;;;;29.47;15.47;;;;;;;3.60;84.53;101726.92;1631881;88;21059;-73
2022/01/14 04:13:49;;;;;;;27.90;14.67;;;;;;;3.57;84.55;101729.95;1631739;88;21039;-73
2022/01/14 04:16:16;;;;;;;31.30;16.30;;;;;;;3.57;84.66;101724.77;1631644;88;21309;-74
2022/01/14 04:18:44;;;;;;;28.63;14.70;;;;;;;3.56;84.63;101732.08;1632044;88;22286;-73
2022/01/14 04:21:11;;;;;;;26.67;15.20;;;;;;;3.55;84.70;101718.68;1631431;88;21292;-76
2022/01/14 04:23:38;;;;;;;25.00;15.00;;;;;;;3.57;84.71;101723.87;1631713;88;21449;-73
2022/01/14 04:26:05;;;;;;;24.17;13.90;;;;;;;3.56;84.72;101712.63;1631575;88;21055;-73
2022/01/14 04:28:35;;;;;;;23.67;13.43;;;;;;;3.55;84.69;101700.97;1631662;88;22895;-73
2022/01/14 04:31:04;;;;;;;26.33;14.07;;;;;;;3.52;84.72;101699.20;1631689;88;21152;-73
2022/01/14 04:33:33;;;;;;;25.97;14.57;;;;;;;3.51;84.73;101702.62;1631376;88;21111;-73
2022/01/14 04:36:02;;;;;;;28.93;14.57;;;;;;;3.49;84.75;101706.05;1631601;88;21472;-73
2022/01/14 04:38:31;;;;;;;25.90;14.37;;;;;;;3.48;84.81;101687.47;1631551;88;21110;-73
2022/01/14 04:41:02;;;;;;;27.97;14.07;;;;;;;3.46;84.82;101693.05;1631760;88;21032;-73
2022/01/14 04:43:30;;;;;;;26.00;15.53;;;;;;;3.45;84.82;101690.02;1631531;88;21215;-74
2022/01/14 04:48:30;;;;;;;27.40;14.13;;;;;;;3.43;84.84;101683.94;1631576;88;26733;-73
2022/01/14 04:50:58;;;;;;;22.48;13.58;;;;;;;3.42;84.91;101683.51;1631947;88;21533;-73
2022/01/14 04:53:27;;;;;;;27.50;14.63;;;;;;;3.41;84.98;101698.59;1631723;88;21024;-73
2022/01/14 04:55:55;;;;;;;23.00;14.30;;;;;;;3.40;85.04;101702.91;1631896;88;21194;-73
2022/01/14 04:58:24;;;;;;;25.70;15.47;;;;;;;3.39;85.00;101703.77;1631464;88;21059;-73
2022/01/14 05:00:52;;;;;;;26.87;14.23;;;;;;;3.38;85.00;101712.81;1631752;88;21502;-76
2022/01/14 05:03:20;;;;;;;26.27;14.53;;;;;;;3.37;85.01;101722.74;1631496;88;21035;-75
2022/01/14 05:05:50;;;;;;;23.93;14.27;;;;;;;3.36;85.09;101724.47;1631794;88;21063;-73
2022/01/14 05:08:24;;;;;;;29.23;15.17;;;;;;;3.37;85.13;101728.79;1631725;86;21148;-73
2022/01/14 05:13:25;;;;;;;29.80;15.77;;;;;;;3.35;85.21;101739.55;1631446;88;21043;-73
2022/01/14 05:15:55;;;;;;;28.03;14.93;;;;;;;3.34;85.25;101723.14;1631732;88;21048;-73
2022/01/14 05:18:23;;;;;;;24.20;14.23;;;;;;;3.34;85.25;101715.80;1631661;88;21031;-76
2022/01/14 05:20:54;;;;;;;26.63;15.77;;;;;;;3.32;85.32;101717.05;1631491;88;21973;-73
2022/01/14 05:23:21;;;;;;;25.92;14.70;;;;;;;3.32;85.33;101709.28;1631647;88;21055;-73
2022/01/14 05:25:48;;;;;;;29.47;15.97;;;;;;;3.32;85.47;101704.53;1631725;88;21035;-74
2022/01/14 05:28:15;;;;;;;28.23;15.43;;;;;;;3.31;85.47;101708.84;1631641;88;21488;-73
2022/01/14 05:30:42;;;;;;;30.37;16.70;;;;;;;3.31;85.50;101693.30;1631535;88;21517;-73
2022/01/14 05:33:09;;;;;;;28.30;14.87;;;;;;;3.29;85.46;101687.22;1631530;88;21146;-73
2022/01/14 05:35:36;;;;;;;31.70;15.93;;;;;;;3.26;85.55;101687.17;1631526;88;21027;-73
2022/01/14 05:38:04;;;;;;;26.80;15.10;;;;;;;3.27;85.62;101681.16;1631464;88;21525;-73
2022/01/14 05:40:31;;;;;;;25.60;14.17;;;;;;;3.29;85.77;101686.35;1631826;88;21047;-73
2022/01/14 05:42:59;;;;;;;27.13;15.50;;;;;;;3.29;85.76;101675.55;1631448;88;21035;-73
2022/01/14 05:45:27;;;;;;;28.80;15.40;;;;;;;3.30;85.79;101673.43;1631812;88;21082;-73
2022/01/14 05:47:54;;;;;;;26.93;14.40;;;;;;;3.30;85.86;101667.38;1631525;88;21024;-76
2022/01/14 05:50:25;;;;;;;22.00;12.80;;;;;;;3.32;85.90;101669.55;1631672;88;21136;-73
2022/01/14 05:52:52;;;;;;;27.65;13.85;;;;;;;3.32;85.92;101678.61;1631645;88;21071;-73
2022/01/14 05:55:21;;;;;;;27.60;15.23;;;;;;;3.33;86.01;101659.21;1631722;88;21453;-73
2022/01/14 05:57:48;;;;;;;27.27;14.50;;;;;;;3.34;86.00;101663.97;1631545;88;21788;-73
2022/01/14 06:00:20;;;;;;;27.70;15.63;;;;;;;3.35;85.99;101656.63;1631638;88;20928;-73
2022/01/14 06:02:51;;;;;;;30.53;16.50;;;;;;;3.37;86.04;101652.77;1631337;88;21055;-73
2022/01/14 06:05:19;;;;;;;26.30;15.33;;;;;;;3.33;86.02;101642.37;1631823;88;21430;-73
2022/01/14 06:07:47;;;;;;;26.77;15.07;;;;;;;3.35;86.12;101656.22;1631464;88;21976;-73
2022/01/14 06:10:15;;;;;;;27.77;15.63;;;;;;;3.35;86.15;101648.84;1631710;88;21179;-73
2022/01/14 06:12:42;;;;;;;23.63;14.60;;;;;;;3.33;86.21;101654.46;1631502;88;21068;-73
2022/01/14 06:15:10;;;;;;;24.60;13.77;;;;;;;3.33;86.27;101654.03;1631703;88;21524;-73
2022/01/14 06:17:37;;;;;;;25.83;14.53;;;;;;;3.34;86.33;101650.58;1631534;88;21091;-73
2022/01/14 06:20:06;;;;;;;26.50;14.93;;;;;;;3.36;86.39;101654.50;1631825;88;21084;-73
2022/01/14 06:22:35;;;;;;;26.83;14.10;;;;;;;3.36;86.44;101654.50;1631461;88;21306;-73
2022/01/14 06:25:02;;;;;;;26.57;15.67;;;;;;;3.39;86.50;101651.08;1606442;88;21019;-75
2022/01/14 06:27:32;;;;;;;29.53;14.47;;;;;;;3.39;86.38;101652.37;1631377;88;21438;-73
2022/01/14 06:29:58;;;;;;;25.67;13.60;;;;;;;3.37;86.42;101651.47;1631686;88;21027;-73
2022/01/14 06:32:25;;;;;;;31.73;16.40;;;;;;;3.37;86.47;101649.75;1631612;88;21066;-76
2022/01/14 06:34:52;;;;;;;25.27;12.83;;;;;;;3.38;86.47;101650.61;1631710;88;21127;-73
2022/01/14 06:37:19;;;;;;;26.27;14.80;;;;;;;3.38;86.52;101650.61;1631378;88;21051;-73
2022/01/14 06:39:46;;;;;;;25.23;14.17;;;;;;;3.37;86.51;101641.97;1631568;88;21565;-73
2022/01/14 06:42:13;;;;;;;25.13;13.83;;;;;;;3.37;86.54;101651.04;1631551;88;21111;-73
2022/01/14 06:44:40;;;;;;;26.83;14.37;;;;;;;3.37;86.63;101640.67;1631694;88;21070;-74
2022/01/14 06:47:07;;;;;;;25.30;13.37;;;;;;;3.38;86.65;101646.32;1631555;88;21150;-74
2022/01/14 06:49:34;;;;;;;22.70;12.60;;;;;;;3.38;86.59;101650.61;1631594;88;21545;-73
2022/01/14 06:52:01;;;;;;;23.50;12.83;;;;;;;3.37;86.70;101646.29;1631540;88;21115;-73
2022/01/14 06:54:28;;;;;;;24.00;13.70;;;;;;;3.38;86.79;101646.72;1631702;88;21502;-75
2022/01/14 06:56:55;;;;;;;25.60;14.17;;;;;;;3.39;86.76;101657.13;1631465;88;21059;-73
2022/01/14 06:59:22;;;;;;;26.87;14.00;;;;;;;3.38;86.73;101661.88;1631682;88;21140;-73
2022/01/14 07:01:50;;;;;;;21.07;13.23;;;;;;;3.38;86.75;101657.98;1631519;88;22223;-73
2022/01/14 07:04:18;;;;;;;24.97;13.73;;;;;;;3.37;86.84;101648.45;1631448;88;21103;-74
2022/01/14 07:06:45;;;;;;;22.43;12.83;;;;;;;3.39;86.84;101654.96;1631699;88;21051;-73
2022/01/14 07:09:12;;;;;;;21.73;12.40;;;;;;;3.38;86.82;101641.53;1631430;88;21069;-73
2022/01/14 07:11:39;;;;;;;20.53;12.77;;;;;;;3.37;86.89;101643.70;1631695;88;21107;-73
2022/01/14 07:14:07;;;;;;;23.87;13.57;;;;;;;3.37;87.02;101638.52;1631295;88;21097;-73
2022/01/14 07:16:35;;;;;;;24.40;13.60;;;;;;;3.36;86.97;101649.31;1631686;88;21126;-76
2022/01/14 07:19:03;;;;;;;23.27;12.40;;;;;;;3.33;87.05;101629.41;1631556;88;21047;-73
2022/01/14 07:21:34;;;;;;;24.27;13.77;;;;;;;3.35;87.06;101636.78;1631698;88;21111;-73
2022/01/14 07:24:03;;;;;;;23.40;12.57;;;;;;;3.34;87.12;101640.64;1631454;88;21258;-76
2022/01/14 07:26:31;;;;;;;26.20;13.20;;;;;;;3.33;87.15;101638.91;1631725;88;21027;-73
2022/01/14 07:28:58;;;;;;;21.47;12.33;;;;;;;3.33;87.26;101628.11;1631501;88;21004;-75
2022/01/14 07:31:25;;;;;;;20.43;11.40;;;;;;;3.33;87.25;101629.41;1631785;88;21505;-73
2022/01/14 07:33:52;;;;;;;20.13;12.80;;;;;;;3.32;87.35;101622.47;1631377;88;21047;-73
2022/01/14 07:36:19;;;;;;;23.17;12.67;;;;;;;3.31;87.40;101607.78;1631700;88;21200;-73
2022/01/14 07:38:46;;;;;;;20.93;13.00;;;;;;;3.33;87.43;101608.68;1631505;88;20928;-73
2022/01/14 07:41:13;;;;;;;21.60;12.23;;;;;;;3.33;87.39;101598.74;1631468;88;21043;-73
2022/01/14 07:43:41;;;;;;;19.60;12.20;;;;;;;3.33;87.50;101591.83;1631809;88;21071;-74
2022/01/14 07:46:08;;;;;;;21.37;12.87;;;;;;;3.35;87.61;101592.73;1631673;88;21076;-74
2022/01/14 07:48:35;;;;;;;20.53;12.77;;;;;;;3.37;87.57;101597.91;1631835;88;21103;-73
2022/01/14 07:51:02;;;;;;;20.07;10.93;;;;;;;3.37;87.57;101579.77;1631562;88;21028;-74
2022/01/14 07:53:29;;;;;;;19.20;12.07;;;;;;;3.38;87.64;101589.31;1631778;88;21571;-73
2022/01/14 07:55:56;;;;;;;21.57;11.00;;;;;;;3.41;87.77;101598.41;1631499;88;21027;-73
2022/01/14 07:58:23;;;;;;;20.13;11.47;;;;;;;3.42;87.68;101591.50;1631892;88;21079;-73
2022/01/14 08:00:51;;;;;;;22.00;11.37;;;;;;;3.44;87.77;101585.48;1631670;88;21143;-77
2022/01/14 08:03:18;;;;;;;19.87;10.87;;;;;;;3.47;87.79;101589.41;1631818;88;21024;-73
2022/01/14 08:05:45;;;;;;;19.47;10.80;;;;;;;3.47;87.82;101584.22;1631632;88;21541;-73
2022/01/14 08:08:17;;;;;;;19.17;10.97;;;;;;;3.49;87.83;101596.77;1631557;88;21036;-73
2022/01/14 08:10:45;;;;;;;20.67;11.30;;;;;;;3.52;87.87;101592.92;1631628;88;21519;-74
2022/01/14 08:13:12;;;;;;;21.67;11.70;;;;;;;3.55;87.84;101592.09;1631560;88;21151;-75
2022/01/14 08:15:39;;;;;;;20.60;11.23;;;;;;;3.57;87.87;101595.14;1631495;88;21056;-73
2022/01/14 08:18:07;;;;;;;18.90;10.90;;;;;;;3.60;87.86;101598.59;1631706;88;21000;-77
2022/01/14 08:20:34;;;;;;;19.87;10.97;;;;;;;3.60;87.81;101591.68;1631466;88;21516;-73
2022/01/14 08:23:01;;;;;;;17.63;10.77;;;;;;;3.62;87.79;101583.50;1631553;88;21062;-73
2022/01/14 08:25:32;;;;;;;18.93;10.37;;;;;;;3.65;87.85;101561.92;1631633;88;21229;-73
2022/01/14 08:27:58;;;;;;;19.73;11.57;;;;;;;3.65;87.79;101557.60;1631639;88;21047;-73
2022/01/14 08:30:26;;;;;;;19.03;10.97;;;;;;;3.67;87.83;101572.75;1631502;88;21059;-73
2022/01/14 08:32:53;;;;;;;18.60;10.77;;;;;;;3.67;87.81;101568.86;1631647;88;21079;-73
2022/01/14 08:35:20;;;;;;;18.37;10.93;;;;;;;3.68;87.80;101567.13;1631803;88;21039;-73
2022/01/14 08:37:47;;;;;;;17.80;9.87;;;;;;;3.69;87.82;101567.59;1631688;88;21135;-73
2022/01/14 08:40:14;;;;;;;19.13;11.23;;;;;;;3.69;87.93;101576.24;1613792;89;21053;-73
2022/01/14 08:42:44;;;;;;;16.83;10.73;;;;;;;3.70;87.88;101585.75;1613721;89;21043;-73
2022/01/14 08:45:10;;;;;;;19.10;11.03;;;;;;;3.73;87.86;101575.40;1613915;87;21027;-72
2022/01/14 08:47:37;;;;;;;19.77;11.77;;;;;;;3.73;87.99;101581.02;1613615;89;21063;-76
2022/01/14 08:50:05;;;;;;;19.70;11.80;;;;;;;3.73;87.90;101582.31;1614046;89;21130;-73
2022/01/14 08:52:32;;;;;;;22.00;11.50;;;;;;;3.72;87.87;101577.56;1613564;89;21027;-73
2022/01/14 08:55:00;;;;;;;21.27;11.63;;;;;;;3.71;87.83;101568.03;1613866;89;21107;-73
2022/01/14 08:57:26;;;;;;;17.80;11.30;;;;;;;3.72;87.83;101573.67;1613722;89;21079;-76
2022/01/14 08:59:55;;;;;;;20.37;11.17;;;;;;;3.72;87.84;101563.30;1613923;88;21053;-73
2022/01/14 09:02:22;;;;;;;24.03;12.20;;;;;;;3.71;87.83;101573.64;1613731;89;21201;-73
2022/01/14 09:04:49;;;;;;;23.00;12.73;;;;;;;3.68;87.82;101566.70;1613751;89;21045;-73
2022/01/14 09:07:16;;;;;;;21.63;12.53;;;;;;;3.68;87.82;101564.11;1613681;89;21485;-73
2022/01/14 09:09:43;;;;;;;21.07;11.37;;;;;;;3.67;87.85;101581.83;1613972;89;21075;-73
2022/01/14 09:12:14;;;;;;;20.97;11.87;;;;;;;3.64;87.81;101576.62;1613585;89;21579;-76
2022/01/14 09:14:39;;;;;;;21.43;12.20;;;;;;;3.61;87.82;101571.41;1614098;87;21066;-75
2022/01/14 09:17:06;;;;;;;24.07;14.00;;;;;;;3.61;87.85;101570.54;1613708;88;21074;-75
2022/01/14 09:19:33;;;;;;;21.83;12.07;;;;;;;3.61;87.93;101601.22;1613886;89;21062;-73
2022/01/14 09:22:00;;;;;;;24.80;12.53;;;;;;;3.58;87.92;101581.75;1613626;89;21104;-73
2022/01/14 09:24:27;;;;;;;22.77;13.40;;;;;;;3.60;87.97;101585.63;1614037;89;21567;-74
2022/01/14 09:26:54;;;;;;;22.17;12.43;;;;;;;3.59;87.97;101588.66;1613791;89;21146;-74
2022/01/14 09:29:21;;;;;;;22.90;13.70;;;;;;;3.60;87.98;101586.49;1613861;89;21054;-72
2022/01/14 09:31:48;;;;;;;25.67;14.07;;;;;;;3.57;88.19;101617.17;1613778;89;21023;-73
2022/01/14 09:34:15;;;;;;;24.60;13.90;;;;;;;3.55;88.07;101594.24;1613706;89;21314;-74
2022/01/14 09:36:42;;;;;;;26.20;13.87;;;;;;;3.55;88.05;101598.13;1613747;89;21051;-73
2022/01/14 09:39:09;;;;;;;26.03;13.63;;;;;;;3.53;88.10;101602.42;1613741;89;21144;-73
2022/01/14 09:41:38;;;;;;;22.70;13.47;;;;;;;3.55;88.16;101592.09;1613680;89;22068;-73
2022/01/14 09:44:06;;;;;;;23.13;12.83;;;;;;;3.57;88.20;101586.47;1613790;89;21591;-73
2022/01/14 09:46:34;;;;;;;26.23;14.10;;;;;;;3.57;88.16;101589.06;1613648;87;21059;-73
2022/01/14 09:49:01;;;;;;;23.50;13.30;;;;;;;3.57;88.15;101596.84;1613941;89;21079;-73
2022/01/14 09:51:28;;;;;;;24.07;13.17;;;;;;;3.56;88.11;101596.41;1613583;87;22105;-76
2022/01/14 09:53:55;;;;;;;24.23;14.03;;;;;;;3.53;88.11;101595.94;1585073;89;21055;-74
2022/01/14 09:56:24;;;;;;;25.40;13.80;;;;;;;3.53;88.13;101582.12;1613629;89;21031;-73
2022/01/14 09:58:51;;;;;;;25.20;14.00;;;;;;;3.52;88.22;101610.17;1613882;89;21035;-74
2022/01/14 10:01:22;;;;;;;25.03;14.07;;;;;;;3.52;88.19;101583.84;1613774;89;21070;-77
2022/01/14 10:04:01;;;;;;;24.15;14.20;;;;;;;3.50;88.22;101583.38;1613743;89;21300;-73
2022/01/14 10:06:51;;;;;;;28.23;14.53;;;;;;;3.51;88.25;101581.22;1613729;89;21034;-73
2022/01/14 10:09:35;;;;;;;27.80;14.40;;;;;;;3.50;88.27;101581.66;1613631;89;21023;-74
2022/01/14 10:12:20;;;;;;;28.80;15.10;;;;;;;3.50;88.32;101585.55;1613965;89;21557;-73
2022/01/14 10:15:00;;;;;;;26.37;14.47;;;;;;;3.47;88.31;101594.59;1613640;89;21122;-74
2022/01/14 10:17:43;;;;;;;25.72;15.03;;;;;;;3.44;88.33;101592.39;1614074;88;21137;-75
2022/01/14 10:20:14;;;;;;;30.70;15.60;;;;;;;3.42;88.37;101589.77;1613525;89;21114;-74
2022/01/14 10:22:48;;;;;;;29.23;15.50;;;;;;;3.40;88.43;101610.91;1614001;89;21452;-73
2022/01/14 10:25:20;;;;;;;25.57;15.00;;;;;;;3.40;88.46;101590.17;1613708;88;21106;-74
2022/01/14 10:27:54;;;;;;;27.00;15.37;;;;;;;3.39;88.46;101583.69;1613634;89;21059;-74
2022/01/14 10:30:28;;;;;;;27.40;15.37;;;;;;;3.40;88.44;101594.48;1613483;89;22440;-74
2022/01/14 10:33:08;;;;;;;31.67;16.17;;;;;;;3.38;88.42;101609.14;1613810;89;21529;-74
2022/01/14 10:35:42;;;;;;;29.77;15.17;;;;;;;3.34;88.45;101592.27;1613663;88;21586;-74
2022/01/14 10:38:20;;;;;;;29.80;16.43;;;;;;;3.34;88.57;101591.40;1613960;89;21060;-76
2022/01/14 10:40:51;;;;;;;31.87;16.67;;;;;;;3.32;88.50;101576.25;1613697;89;21107;-75
2022/01/14 10:43:22;;;;;;;28.57;15.57;;;;;;;3.31;88.57;101583.59;1613866;89;21138;-73
2022/01/14 10:45:51;;;;;;;29.13;15.57;;;;;;;3.28;88.61;101566.72;1613661;89;20945;-73
2022/01/14 10:48:37;;;;;;;28.87;15.37;;;;;;;3.27;88.65;101560.67;1613864;87;21024;-76
2022/01/14 10:51:10;;;;;;;29.23;16.80;;;;;;;3.28;88.62;101570.17;1613552;89;21062;-74
2022/01/14 10:53:53;;;;;;;29.73;15.43;;;;;;;3.25;88.66;101566.25;1613772;89;21066;-77
2022/01/14 10:56:25;;;;;;;28.03;15.53;;;;;;;3.23;88.72;101565.80;1613590;89;22473;-74
2022/01/14 10:58:59;;;;;;;27.60;14.83;;;;;;;3.20;88.75;101561.44;1613756;89;21047;-74
2022/01/14 11:01:26;;;;;;;30.50;15.70;;;;;;;3.17;88.85;101552.34;1613461;88;21047;-74
2022/01/14 11:03:56;;;;;;;32.37;16.53;;;;;;;3.16;88.89;101554.50;1613516;87;21066;-74
2022/01/14 11:06:29;;;;;;;;;;;;;;;3.14;88.93;101535.47;1616176;88;21127;-74
2022/01/14 11:09:10;;;;;;;30.87;16.50;;;;;;;3.13;89.01;101531.12;1613729;89;22055;-74
2022/01/14 11:11:46;;;;;;;30.57;16.13;;;;;;;3.10;89.14;101538.86;1613307;89;21551;-75
2022/01/14 11:14:14;;;;;;;30.00;15.40;;;;;;;3.07;89.16;101540.12;1613671;89;21054;-75
2022/01/14 11:16:43;;;;;;;29.77;15.33;;;;;;;3.08;89.19;101540.58;1613456;89;21540;-75
2022/01/14 11:19:13;;;;;;;24.90;14.87;;;;;;;3.07;89.28;101529.33;1613839;89;21047;-75
2022/01/14 11:24:34;;;;;;;25.53;14.27;;;;;;;3.07;89.44;101503.86;1613454;88;21099;-74
2022/01/14 11:27:09;;;;;;;24.87;13.63;;;;;;;3.08;89.49;101500.44;1613631;89;21115;-76
2022/01/14 11:29:42;;;;;;;24.17;13.47;;;;;;;3.07;89.63;101496.95;1585494;89;21047;-75
2022/01/14 11:32:09;;;;;;;24.20;13.20;;;;;;;3.07;89.81;101480.55;1613459;89;21070;-74
2022/01/14 11:34:46;;;;;;;28.67;15.93;;;;;;;3.11;89.79;101478.02;1613794;87;22059;-75
2022/01/14 11:37:31;;;;;;;23.37;13.70;;;;;;;3.13;89.83;101482.80;1613474;89;21064;-75
2022/01/14 11:40:01;;;;;;;25.97;14.23;;;;;;;3.15;89.94;101464.66;1613948;89;21031;-75
2022/01/14 11:42:50;;;;;;;23.03;12.53;;;;;;;3.17;90.09;101464.25;1613206;89;21118;-75
2022/01/14 11:45:26;;;;;;;25.30;12.87;;;;;;;3.19;90.07;101472.92;1613794;89;21086;-76
2022/01/14 11:48:00;;;;;;;22.60;13.10;;;;;;;3.20;90.27;101463.42;1597691;89;21232;-75